Terminal Aerodrome Forecast
Issued by NWS

Home | Current Version | Previous Version | Text Only | Print | Product List | Glossary On
Versions: 1 2 3 4 5 6 7 8 9 10 11 12 13 14 15 16
887
FTUS46 KSGX 161139
TAFONT
TAF
KONT 161139Z 1612/1718 VRB04KT P6SM BKN250
     FM162000 24010KT P6SM SCT020
     FM170200 VRB04KT P6SM SKC
     FM170600 VRB04KT P6SM SKC WS010/05030KT
     FM171000 05015G25KT P6SM SKC
     FM171300 05025G40KT P6SM SKC=

USA.gov is the U.S. government's official web portal to all federal, state and local government web resources and services.